sensor_id;sensor_type;location;lat;lon;timestamp;P1;durP1;ratioP1;P2;durP2;ratioP2
69534;SDS011;56754;51.568;5.048;2023-05-10T00:01:15;14.47;;;7.60;;
69534;SDS011;56754;51.568;5.048;2023-05-10T00:03:41;14.37;;;7.63;;
69534;SDS011;56754;51.568;5.048;2023-05-10T00:06:06;12.10;;;7.30;;
69534;SDS011;56754;51.568;5.048;2023-05-10T00:08:32;12.05;;;7.10;;
69534;SDS011;56754;51.568;5.048;2023-05-10T00:10:57;12.73;;;7.47;;
69534;SDS011;56754;51.568;5.048;2023-05-10T00:13:22;12.27;;;7.10;;
69534;SDS011;56754;51.568;5.048;2023-05-10T00:15:48;11.97;;;6.77;;
69534;SDS011;56754;51.568;5.048;2023-05-10T00:18:13;13.90;;;7.70;;
69534;SDS011;56754;51.568;5.048;2023-05-10T00:20:38;11.57;;;7.30;;
69534;SDS011;56754;51.568;5.048;2023-05-10T00:23:04;12.80;;;7.10;;
69534;SDS011;56754;51.568;5.048;2023-05-10T00:25:29;12.47;;;7.40;;
69534;SDS011;56754;51.568;5.048;2023-05-10T00:27:54;14.23;;;8.13;;
69534;SDS011;56754;51.568;5.048;2023-05-10T00:30:19;12.50;;;7.97;;
69534;SDS011;56754;51.568;5.048;2023-05-10T00:32:45;13.23;;;8.17;;
69534;SDS011;56754;51.568;5.048;2023-05-10T00:35:10;14.10;;;9.37;;
69534;SDS011;56754;51.568;5.048;2023-05-10T00:37:36;13.93;;;8.48;;
69534;SDS011;56754;51.568;5.048;2023-05-10T00:40:01;12.57;;;7.77;;
69534;SDS011;56754;51.568;5.048;2023-05-10T00:42:26;12.87;;;8.00;;
69534;SDS011;56754;51.568;5.048;2023-05-10T00:44:52;14.03;;;8.93;;
69534;SDS011;56754;51.568;5.048;2023-05-10T00:47:17;12.60;;;7.70;;
69534;SDS011;56754;51.568;5.048;2023-05-10T00:49:43;13.45;;;8.38;;
69534;SDS011;56754;51.568;5.048;2023-05-10T00:52:09;14.73;;;8.80;;
69534;SDS011;56754;51.568;5.048;2023-05-10T00:54:34;14.07;;;8.40;;
69534;SDS011;56754;51.568;5.048;2023-05-10T00:57:00;14.23;;;8.53;;
69534;SDS011;56754;51.568;5.048;2023-05-10T00:59:25;17.20;;;9.73;;
69534;SDS011;56754;51.568;5.048;2023-05-10T01:01:51;14.27;;;8.70;;
69534;SDS011;56754;51.568;5.048;2023-05-10T01:04:17;13.82;;;8.70;;
69534;SDS011;56754;51.568;5.048;2023-05-10T01:06:42;15.37;;;8.97;;
69534;SDS011;56754;51.568;5.048;2023-05-10T01:09:09;15.35;;;9.98;;
69534;SDS011;56754;51.568;5.048;2023-05-10T01:11:35;18.83;;;10.50;;
69534;SDS011;56754;51.568;5.048;2023-05-10T01:14:02;14.83;;;8.80;;
69534;SDS011;56754;51.568;5.048;2023-05-10T01:16:29;18.05;;;10.50;;
69534;SDS011;56754;51.568;5.048;2023-05-10T01:18:57;19.10;;;10.80;;
69534;SDS011;56754;51.568;5.048;2023-05-10T01:33:29;19.00;;;11.23;;
69534;SDS011;56754;51.568;5.048;2023-05-10T01:36:08;20.80;;;12.00;;
69534;SDS011;56754;51.568;5.048;2023-05-10T01:38:53;18.98;;;10.93;;
69534;SDS011;56754;51.568;5.048;2023-05-10T01:41:39;18.67;;;11.10;;
69534;SDS011;56754;51.568;5.048;2023-05-10T01:47:10;17.60;;;10.60;;
69534;SDS011;56754;51.568;5.048;2023-05-10T01:49:43;20.63;;;12.20;;
69534;SDS011;56754;51.568;5.048;2023-05-10T01:52:12;18.88;;;11.02;;
69534;SDS011;56754;51.568;5.048;2023-05-10T01:54:41;20.88;;;12.40;;
69534;SDS011;56754;51.568;5.048;2023-05-10T01:57:09;21.10;;;11.87;;
69534;SDS011;56754;51.568;5.048;2023-05-10T01:59:38;21.13;;;11.98;;
69534;SDS011;56754;51.568;5.048;2023-05-10T02:02:05;20.88;;;12.90;;
69534;SDS011;56754;51.568;5.048;2023-05-10T02:04:31;19.70;;;11.70;;
69534;SDS011;56754;51.568;5.048;2023-05-10T02:07:01;19.55;;;11.98;;
69534;SDS011;56754;51.568;5.048;2023-05-10T02:09:27;18.70;;;12.00;;
69534;SDS011;56754;51.568;5.048;2023-05-10T02:11:54;21.58;;;12.98;;
69534;SDS011;56754;51.568;5.048;2023-05-10T02:14:21;21.08;;;12.55;;
69534;SDS011;56754;51.568;5.048;2023-05-10T02:16:47;20.93;;;12.30;;
69534;SDS011;56754;51.568;5.048;2023-05-10T02:19:15;23.35;;;13.38;;
69534;SDS011;56754;51.568;5.048;2023-05-10T02:21:43;18.48;;;11.68;;
69534;SDS011;56754;51.568;5.048;2023-05-10T02:24:10;20.00;;;12.68;;
69534;SDS011;56754;51.568;5.048;2023-05-10T02:26:36;19.75;;;12.10;;
69534;SDS011;56754;51.568;5.048;2023-05-10T02:29:03;20.03;;;12.43;;
69534;SDS011;56754;51.568;5.048;2023-05-10T02:31:31;22.63;;;12.98;;
69534;SDS011;56754;51.568;5.048;2023-05-10T02:33:58;19.80;;;12.07;;
69534;SDS011;56754;51.568;5.048;2023-05-10T02:36:24;19.58;;;11.10;;
69534;SDS011;56754;51.568;5.048;2023-05-10T02:38:52;19.92;;;11.60;;
69534;SDS011;56754;51.568;5.048;2023-05-10T02:41:18;20.70;;;11.60;;
69534;SDS011;56754;51.568;5.048;2023-05-10T02:43:46;20.00;;;12.18;;
69534;SDS011;56754;51.568;5.048;2023-05-10T02:46:14;20.55;;;12.05;;
69534;SDS011;56754;51.568;5.048;2023-05-10T02:48:39;20.80;;;12.40;;
69534;SDS011;56754;51.568;5.048;2023-05-10T02:51:05;19.77;;;12.03;;
69534;SDS011;56754;51.568;5.048;2023-05-10T02:53:33;21.63;;;12.55;;
69534;SDS011;56754;51.568;5.048;2023-05-10T02:56:10;22.83;;;12.82;;
69534;SDS011;56754;51.568;5.048;2023-05-10T02:58:38;23.33;;;13.25;;
69534;SDS011;56754;51.568;5.048;2023-05-10T03:01:03;20.20;;;11.90;;
69534;SDS011;56754;51.568;5.048;2023-05-10T03:03:29;22.40;;;12.77;;
69534;SDS011;56754;51.568;5.048;2023-05-10T03:05:54;21.53;;;12.77;;
69534;SDS011;56754;51.568;5.048;2023-05-10T03:08:20;19.23;;;12.20;;
69534;SDS011;56754;51.568;5.048;2023-05-10T03:10:48;20.65;;;11.98;;
69534;SDS011;56754;51.568;5.048;2023-05-10T03:16:12;17.83;;;11.68;;
69534;SDS011;56754;51.568;5.048;2023-05-10T03:18:50;19.77;;;11.68;;
69534;SDS011;56754;51.568;5.048;2023-05-10T03:21:22;18.60;;;11.13;;
69534;SDS011;56754;51.568;5.048;2023-05-10T03:24:05;17.92;;;10.98;;
69534;SDS011;56754;51.568;5.048;2023-05-10T03:26:32;19.77;;;10.73;;
69534;SDS011;56754;51.568;5.048;2023-05-10T03:28:59;21.35;;;11.43;;
69534;SDS011;56754;51.568;5.048;2023-05-10T03:31:25;19.67;;;11.57;;
69534;SDS011;56754;51.568;5.048;2023-05-10T03:33:51;19.30;;;12.07;;
69534;SDS011;56754;51.568;5.048;2023-05-10T03:36:17;21.05;;;11.77;;
69534;SDS011;56754;51.568;5.048;2023-05-10T03:38:44;19.10;;;10.88;;
69534;SDS011;56754;51.568;5.048;2023-05-10T03:41:09;22.23;;;12.00;;
69534;SDS011;56754;51.568;5.048;2023-05-10T03:43:35;19.92;;;11.73;;
69534;SDS011;56754;51.568;5.048;2023-05-10T03:46:03;18.40;;;10.67;;
69534;SDS011;56754;51.568;5.048;2023-05-10T03:48:29;18.77;;;10.35;;
69534;SDS011;56754;51.568;5.048;2023-05-10T03:50:55;16.67;;;10.63;;
69534;SDS011;56754;51.568;5.048;2023-05-10T03:53:20;19.63;;;10.83;;
69534;SDS011;56754;51.568;5.048;2023-05-10T03:55:46;20.27;;;11.00;;
69534;SDS011;56754;51.568;5.048;2023-05-10T03:58:11;20.10;;;10.90;;
69534;SDS011;56754;51.568;5.048;2023-05-10T04:00:37;18.13;;;11.00;;
69534;SDS011;56754;51.568;5.048;2023-05-10T04:03:02;17.40;;;10.10;;
69534;SDS011;56754;51.568;5.048;2023-05-10T04:05:28;17.30;;;10.77;;
69534;SDS011;56754;51.568;5.048;2023-05-10T04:07:53;20.63;;;10.77;;
69534;SDS011;56754;51.568;5.048;2023-05-10T04:10:19;18.80;;;10.00;;
69534;SDS011;56754;51.568;5.048;2023-05-10T04:12:44;18.23;;;10.20;;
69534;SDS011;56754;51.568;5.048;2023-05-10T04:15:09;19.43;;;10.33;;
69534;SDS011;56754;51.568;5.048;2023-05-10T04:17:35;17.67;;;10.03;;
69534;SDS011;56754;51.568;5.048;2023-05-10T04:20:00;16.33;;;9.97;;
69534;SDS011;56754;51.568;5.048;2023-05-10T04:22:25;17.02;;;10.13;;
69534;SDS011;56754;51.568;5.048;2023-05-10T04:24:51;19.27;;;10.90;;
69534;SDS011;56754;51.568;5.048;2023-05-10T04:27:16;18.10;;;11.03;;
69534;SDS011;56754;51.568;5.048;2023-05-10T04:29:41;19.47;;;10.60;;
69534;SDS011;56754;51.568;5.048;2023-05-10T04:32:07;21.60;;;11.50;;
69534;SDS011;56754;51.568;5.048;2023-05-10T04:34:32;16.20;;;10.05;;
69534;SDS011;56754;51.568;5.048;2023-05-10T04:36:58;18.70;;;10.13;;
69534;SDS011;56754;51.568;5.048;2023-05-10T04:39:23;17.67;;;10.57;;
69534;SDS011;56754;51.568;5.048;2023-05-10T04:41:48;17.70;;;10.27;;
69534;SDS011;56754;51.568;5.048;2023-05-10T04:44:13;18.00;;;11.03;;
69534;SDS011;56754;51.568;5.048;2023-05-10T04:46:39;17.40;;;10.40;;
69534;SDS011;56754;51.568;5.048;2023-05-10T04:49:04;16.70;;;10.93;;
69534;SDS011;56754;51.568;5.048;2023-05-10T04:51:29;17.75;;;10.82;;
69534;SDS011;56754;51.568;5.048;2023-05-10T04:53:55;20.33;;;11.00;;
69534;SDS011;56754;51.568;5.048;2023-05-10T04:56:20;17.93;;;10.40;;
69534;SDS011;56754;51.568;5.048;2023-05-10T04:58:45;18.57;;;10.23;;
69534;SDS011;56754;51.568;5.048;2023-05-10T05:01:11;15.67;;;9.70;;
69534;SDS011;56754;51.568;5.048;2023-05-10T05:03:36;21.60;;;10.93;;
69534;SDS011;56754;51.568;5.048;2023-05-10T05:06:02;17.98;;;10.63;;
69534;SDS011;56754;51.568;5.048;2023-05-10T05:08:27;20.37;;;11.53;;
69534;SDS011;56754;51.568;5.048;2023-05-10T05:10:53;17.02;;;9.73;;
69534;SDS011;56754;51.568;5.048;2023-05-10T05:13:18;18.27;;;10.80;;
69534;SDS011;56754;51.568;5.048;2023-05-10T05:15:44;18.33;;;10.63;;
69534;SDS011;56754;51.568;5.048;2023-05-10T05:18:09;18.50;;;9.80;;
69534;SDS011;56754;51.568;5.048;2023-05-10T05:20:34;17.65;;;9.90;;
69534;SDS011;56754;51.568;5.048;2023-05-10T05:23:00;18.27;;;10.37;;
69534;SDS011;56754;51.568;5.048;2023-05-10T05:25:26;15.63;;;9.40;;
69534;SDS011;56754;51.568;5.048;2023-05-10T05:27:51;15.98;;;9.40;;
69534;SDS011;56754;51.568;5.048;2023-05-10T05:30:16;17.37;;;8.87;;
69534;SDS011;56754;51.568;5.048;2023-05-10T05:32:42;17.80;;;10.53;;
69534;SDS011;56754;51.568;5.048;2023-05-10T05:35:07;17.73;;;9.70;;
69534;SDS011;56754;51.568;5.048;2023-05-10T05:37:32;17.67;;;10.67;;
69534;SDS011;56754;51.568;5.048;2023-05-10T05:39:58;18.45;;;10.93;;
69534;SDS011;56754;51.568;5.048;2023-05-10T05:42:23;18.63;;;10.33;;
69534;SDS011;56754;51.568;5.048;2023-05-10T05:44:48;19.23;;;10.57;;
69534;SDS011;56754;51.568;5.048;2023-05-10T05:47:14;16.07;;;9.40;;
69534;SDS011;56754;51.568;5.048;2023-05-10T05:49:39;16.70;;;10.07;;
69534;SDS011;56754;51.568;5.048;2023-05-10T05:52:05;17.52;;;9.82;;
69534;SDS011;56754;51.568;5.048;2023-05-10T05:54:30;18.30;;;10.87;;
69534;SDS011;56754;51.568;5.048;2023-05-10T05:56:57;18.07;;;10.47;;
69534;SDS011;56754;51.568;5.048;2023-05-10T05:59:23;18.13;;;10.93;;
69534;SDS011;56754;51.568;5.048;2023-05-10T06:01:49;21.10;;;12.10;;
69534;SDS011;56754;51.568;5.048;2023-05-10T06:04:14;19.87;;;11.07;;
69534;SDS011;56754;51.568;5.048;2023-05-10T06:06:40;19.48;;;11.65;;
69534;SDS011;56754;51.568;5.048;2023-05-10T06:09:05;20.20;;;11.43;;
69534;SDS011;56754;51.568;5.048;2023-05-10T06:11:31;18.67;;;11.13;;
69534;SDS011;56754;51.568;5.048;2023-05-10T06:13:56;20.53;;;12.47;;
69534;SDS011;56754;51.568;5.048;2023-05-10T06:16:21;20.00;;;11.93;;
69534;SDS011;56754;51.568;5.048;2023-05-10T06:18:46;20.97;;;11.87;;
69534;SDS011;56754;51.568;5.048;2023-05-10T06:21:12;17.87;;;10.50;;
69534;SDS011;56754;51.568;5.048;2023-05-10T06:23:37;18.13;;;10.07;;
69534;SDS011;56754;51.568;5.048;2023-05-10T06:26:02;18.10;;;9.80;;
69534;SDS011;56754;51.568;5.048;2023-05-10T06:28:28;18.03;;;9.20;;
69534;SDS011;56754;51.568;5.048;2023-05-10T06:30:53;17.23;;;9.03;;
69534;SDS011;56754;51.568;5.048;2023-05-10T06:33:18;15.37;;;8.30;;
69534;SDS011;56754;51.568;5.048;2023-05-10T06:35:47;13.57;;;7.37;;
69534;SDS011;56754;51.568;5.048;2023-05-10T06:38:12;13.88;;;7.68;;
69534;SDS011;56754;51.568;5.048;2023-05-10T06:40:40;14.93;;;7.67;;
69534;SDS011;56754;51.568;5.048;2023-05-10T06:43:06;15.32;;;7.93;;
69534;SDS011;56754;51.568;5.048;2023-05-10T06:45:31;15.13;;;7.40;;
69534;SDS011;56754;51.568;5.048;2023-05-10T06:47:57;13.83;;;7.03;;
69534;SDS011;56754;51.568;5.048;2023-05-10T06:50:22;12.63;;;6.70;;
69534;SDS011;56754;51.568;5.048;2023-05-10T06:52:47;14.57;;;7.10;;
69534;SDS011;56754;51.568;5.048;2023-05-10T06:55:12;12.43;;;6.80;;
69534;SDS011;56754;51.568;5.048;2023-05-10T06:57:38;12.57;;;6.27;;
69534;SDS011;56754;51.568;5.048;2023-05-10T07:00:03;13.40;;;7.00;;
69534;SDS011;56754;51.568;5.048;2023-05-10T07:02:29;9.93;;;6.60;;
69534;SDS011;56754;51.568;5.048;2023-05-10T07:04:54;10.53;;;5.93;;
69534;SDS011;56754;51.568;5.048;2023-05-10T07:07:20;10.90;;;5.67;;
69534;SDS011;56754;51.568;5.048;2023-05-10T07:09:45;12.00;;;6.17;;
69534;SDS011;56754;51.568;5.048;2023-05-10T07:12:11;11.43;;;6.07;;
69534;SDS011;56754;51.568;5.048;2023-05-10T07:14:36;11.07;;;6.00;;
69534;SDS011;56754;51.568;5.048;2023-05-10T07:17:01;11.87;;;6.13;;
69534;SDS011;56754;51.568;5.048;2023-05-10T07:19:27;9.80;;;4.97;;
69534;SDS011;56754;51.568;5.048;2023-05-10T07:21:52;11.87;;;5.20;;
69534;SDS011;56754;51.568;5.048;2023-05-10T07:24:17;8.53;;;4.70;;
69534;SDS011;56754;51.568;5.048;2023-05-10T07:26:43;10.83;;;4.70;;
69534;SDS011;56754;51.568;5.048;2023-05-10T07:29:08;10.27;;;4.50;;
69534;SDS011;56754;51.568;5.048;2023-05-10T07:31:33;12.38;;;4.90;;
69534;SDS011;56754;51.568;5.048;2023-05-10T07:33:59;7.83;;;4.43;;
69534;SDS011;56754;51.568;5.048;2023-05-10T07:36:24;8.47;;;4.33;;
69534;SDS011;56754;51.568;5.048;2023-05-10T07:38:49;9.80;;;3.70;;
69534;SDS011;56754;51.568;5.048;2023-05-10T07:41:15;7.73;;;3.50;;
69534;SDS011;56754;51.568;5.048;2023-05-10T07:43:40;6.28;;;3.10;;
69534;SDS011;56754;51.568;5.048;2023-05-10T07:46:05;7.97;;;3.23;;
69534;SDS011;56754;51.568;5.048;2023-05-10T07:48:31;9.50;;;3.10;;
69534;SDS011;56754;51.568;5.048;2023-05-10T07:50:56;6.80;;;2.90;;
69534;SDS011;56754;51.568;5.048;2023-05-10T07:53:21;8.67;;;2.60;;
69534;SDS011;56754;51.568;5.048;2023-05-10T07:55:50;10.10;;;3.00;;
69534;SDS011;56754;51.568;5.048;2023-05-10T07:58:16;6.97;;;3.03;;
69534;SDS011;56754;51.568;5.048;2023-05-10T08:00:41;6.33;;;2.77;;
69534;SDS011;56754;51.568;5.048;2023-05-10T08:03:07;6.75;;;2.55;;
69534;SDS011;56754;51.568;5.048;2023-05-10T08:05:32;7.63;;;2.70;;
69534;SDS011;56754;51.568;5.048;2023-05-10T08:07:57;5.83;;;3.00;;
69534;SDS011;56754;51.568;5.048;2023-05-10T08:10:24;6.67;;;3.30;;
69534;SDS011;56754;51.568;5.048;2023-05-10T08:12:49;6.70;;;2.78;;
69534;SDS011;56754;51.568;5.048;2023-05-10T08:15:14;9.30;;;2.63;;
69534;SDS011;56754;51.568;5.048;2023-05-10T08:17:40;6.83;;;2.37;;
69534;SDS011;56754;51.568;5.048;2023-05-10T08:20:05;5.30;;;2.53;;
69534;SDS011;56754;51.568;5.048;2023-05-10T08:22:31;5.68;;;2.25;;
69534;SDS011;56754;51.568;5.048;2023-05-10T08:24:56;6.63;;;2.20;;
69534;SDS011;56754;51.568;5.048;2023-05-10T08:27:21;6.30;;;2.47;;
69534;SDS011;56754;51.568;5.048;2023-05-10T08:29:47;5.30;;;2.40;;
69534;SDS011;56754;51.568;5.048;2023-05-10T08:32:12;6.43;;;2.22;;
69534;SDS011;56754;51.568;5.048;2023-05-10T08:34:38;5.13;;;2.40;;
69534;SDS011;56754;51.568;5.048;2023-05-10T08:37:03;6.83;;;2.40;;
69534;SDS011;56754;51.568;5.048;2023-05-10T08:39:29;7.93;;;2.93;;
69534;SDS011;56754;51.568;5.048;2023-05-10T08:41:54;5.30;;;2.30;;
69534;SDS011;56754;51.568;5.048;2023-05-10T08:44:26;6.50;;;2.47;;
69534;SDS011;56754;51.568;5.048;2023-05-10T08:46:52;5.97;;;2.50;;
69534;SDS011;56754;51.568;5.048;2023-05-10T08:49:19;6.05;;;2.47;;
69534;SDS011;56754;51.568;5.048;2023-05-10T08:51:51;5.60;;;2.33;;
69534;SDS011;56754;51.568;5.048;2023-05-10T08:54:19;8.25;;;2.88;;
69534;SDS011;56754;51.568;5.048;2023-05-10T08:56:45;5.50;;;2.50;;
69534;SDS011;56754;51.568;5.048;2023-05-10T08:59:11;6.95;;;2.63;;
69534;SDS011;56754;51.568;5.048;2023-05-10T09:01:37;7.13;;;2.53;;
69534;SDS011;56754;51.568;5.048;2023-05-10T09:04:02;8.35;;;2.92;;
69534;SDS011;56754;51.568;5.048;2023-05-10T09:06:28;6.73;;;3.07;;
69534;SDS011;56754;51.568;5.048;2023-05-10T09:08:54;5.70;;;2.80;;
69534;SDS011;56754;51.568;5.048;2023-05-10T09:11:20;7.23;;;2.97;;
69534;SDS011;56754;51.568;5.048;2023-05-10T09:13:46;7.38;;;2.70;;
69534;SDS011;56754;51.568;5.048;2023-05-10T09:16:15;5.65;;;2.63;;
69534;SDS011;56754;51.568;5.048;2023-05-10T09:18:41;6.33;;;2.37;;
69534;SDS011;56754;51.568;5.048;2023-05-10T09:21:06;6.17;;;1.97;;
69534;SDS011;56754;51.568;5.048;2023-05-10T09:23:31;6.13;;;2.50;;
69534;SDS011;56754;51.568;5.048;2023-05-10T09:26:06;6.07;;;2.40;;
69534;SDS011;56754;51.568;5.048;2023-05-10T09:28:49;6.35;;;2.55;;
69534;SDS011;56754;51.568;5.048;2023-05-10T09:31:24;5.63;;;2.63;;
69534;SDS011;56754;51.568;5.048;2023-05-10T09:34:07;6.25;;;2.60;;
69534;SDS011;56754;51.568;5.048;2023-05-10T09:36:33;6.17;;;2.30;;
69534;SDS011;56754;51.568;5.048;2023-05-10T09:38:58;7.90;;;2.70;;
69534;SDS011;56754;51.568;5.048;2023-05-10T09:41:24;6.43;;;2.40;;
69534;SDS011;56754;51.568;5.048;2023-05-10T09:43:49;5.40;;;2.57;;
69534;SDS011;56754;51.568;5.048;2023-05-10T09:46:15;5.50;;;2.38;;
69534;SDS011;56754;51.568;5.048;2023-05-10T09:48:45;6.85;;;2.78;;
69534;SDS011;56754;51.568;5.048;2023-05-10T09:51:21;6.97;;;2.78;;
69534;SDS011;56754;51.568;5.048;2023-05-10T09:53:47;8.57;;;2.77;;
69534;SDS011;56754;51.568;5.048;2023-05-10T09:56:12;6.22;;;2.50;;
69534;SDS011;56754;51.568;5.048;2023-05-10T09:58:38;6.57;;;1.97;;
69534;SDS011;56754;51.568;5.048;2023-05-10T10:01:04;4.83;;;2.10;;
69534;SDS011;56754;51.568;5.048;2023-05-10T10:03:29;5.23;;;2.13;;
69534;SDS011;56754;51.568;5.048;2023-05-10T10:05:55;5.20;;;2.13;;
69534;SDS011;56754;51.568;5.048;2023-05-10T10:08:20;4.90;;;2.00;;
69534;SDS011;56754;51.568;5.048;2023-05-10T10:10:45;7.43;;;2.00;;
69534;SDS011;56754;51.568;5.048;2023-05-10T10:13:12;6.17;;;1.93;;
69534;SDS011;56754;51.568;5.048;2023-05-10T10:15:37;4.53;;;2.08;;
69534;SDS011;56754;51.568;5.048;2023-05-10T10:18:03;5.88;;;2.50;;
69534;SDS011;56754;51.568;5.048;2023-05-10T10:20:30;4.97;;;2.00;;
69534;SDS011;56754;51.568;5.048;2023-05-10T10:22:55;4.90;;;2.00;;
69534;SDS011;56754;51.568;5.048;2023-05-10T10:25:21;6.03;;;2.33;;
69534;SDS011;56754;51.568;5.048;2023-05-10T10:30:25;5.47;;;2.03;;
69534;SDS011;56754;51.568;5.048;2023-05-10T10:36:00;4.13;;;1.60;;
69534;SDS011;56754;51.568;5.048;2023-05-10T10:41:26;3.63;;;1.57;;
69534;SDS011;56754;51.568;5.048;2023-05-10T10:50:22;4.45;;;2.00;;
69534;SDS011;56754;51.568;5.048;2023-05-10T10:52:25;4.22;;;1.70;;
69534;SDS011;56754;51.568;5.048;2023-05-10T10:54:54;4.23;;;1.70;;
69534;SDS011;56754;51.568;5.048;2023-05-10T10:57:24;4.30;;;1.70;;
69534;SDS011;56754;51.568;5.048;2023-05-10T10:59:49;4.03;;;1.70;;
69534;SDS011;56754;51.568;5.048;2023-05-10T11:07:58;8.23;;;1.60;;
69534;SDS011;56754;51.568;5.048;2023-05-10T11:10:25;5.15;;;1.67;;
69534;SDS011;56754;51.568;5.048;2023-05-10T11:15:36;4.97;;;1.50;;
69534;SDS011;56754;51.568;5.048;2023-05-10T11:18:16;5.20;;;1.60;;
69534;SDS011;56754;51.568;5.048;2023-05-10T11:20:55;3.55;;;1.23;;
69534;SDS011;56754;51.568;5.048;2023-05-10T11:23:22;3.45;;;1.48;;
69534;SDS011;56754;51.568;5.048;2023-05-10T11:25:49;3.50;;;1.10;;
69534;SDS011;56754;51.568;5.048;2023-05-10T11:28:16;3.73;;;1.30;;
69534;SDS011;56754;51.568;5.048;2023-05-10T11:30:43;3.42;;;1.38;;
69534;SDS011;56754;51.568;5.048;2023-05-10T11:33:09;3.87;;;1.23;;
69534;SDS011;56754;51.568;5.048;2023-05-10T11:35:39;4.68;;;1.20;;
69534;SDS011;56754;51.568;5.048;2023-05-10T11:38:09;3.85;;;1.40;;
69534;SDS011;56754;51.568;5.048;2023-05-10T11:40:35;5.05;;;1.20;;
69534;SDS011;56754;51.568;5.048;2023-05-10T11:43:02;3.33;;;0.98;;
69534;SDS011;56754;51.568;5.048;2023-05-10T11:45:28;3.87;;;1.20;;
69534;SDS011;56754;51.568;5.048;2023-05-10T11:47:54;3.88;;;1.58;;
69534;SDS011;56754;51.568;5.048;2023-05-10T11:50:20;4.72;;;1.40;;
69534;SDS011;56754;51.568;5.048;2023-05-10T11:52:45;4.13;;;1.20;;
69534;SDS011;56754;51.568;5.048;2023-05-10T11:55:15;4.75;;;1.50;;
69534;SDS011;56754;51.568;5.048;2023-05-10T11:57:44;3.85;;;1.10;;
69534;SDS011;56754;51.568;5.048;2023-05-10T12:00:09;3.87;;;1.20;;
69534;SDS011;56754;51.568;5.048;2023-05-10T12:02:35;3.83;;;1.30;;
69534;SDS011;56754;51.568;5.048;2023-05-10T12:05:01;3.67;;;1.20;;
69534;SDS011;56754;51.568;5.048;2023-05-10T12:07:28;3.90;;;1.30;;
69534;SDS011;56754;51.568;5.048;2023-05-10T12:12:41;3.15;;;1.08;;
69534;SDS011;56754;51.568;5.048;2023-05-10T12:15:11;3.38;;;1.20;;
69534;SDS011;56754;51.568;5.048;2023-05-10T12:17:47;4.30;;;1.33;;
69534;SDS011;56754;51.568;5.048;2023-05-10T12:20:13;3.20;;;1.07;;
69534;SDS011;56754;51.568;5.048;2023-05-10T12:22:40;2.85;;;1.20;;
69534;SDS011;56754;51.568;5.048;2023-05-10T12:25:05;3.60;;;1.00;;
69534;SDS011;56754;51.568;5.048;2023-05-10T12:27:32;3.60;;;1.10;;
69534;SDS011;56754;51.568;5.048;2023-05-10T12:29:59;2.77;;;0.97;;
69534;SDS011;56754;51.568;5.048;2023-05-10T12:32:36;6.35;;;1.05;;
69534;SDS011;56754;51.568;5.048;2023-05-10T12:35:05;3.37;;;0.77;;
69534;SDS011;56754;51.568;5.048;2023-05-10T12:37:31;2.40;;;0.93;;
69534;SDS011;56754;51.568;5.048;2023-05-10T12:39:56;2.00;;;0.80;;
69534;SDS011;56754;51.568;5.048;2023-05-10T12:42:22;4.23;;;1.00;;
69534;SDS011;56754;51.568;5.048;2023-05-10T12:44:47;3.03;;;1.00;;
69534;SDS011;56754;51.568;5.048;2023-05-10T12:47:12;3.07;;;1.00;;
69534;SDS011;56754;51.568;5.048;2023-05-10T12:49:38;4.37;;;1.20;;
69534;SDS011;56754;51.568;5.048;2023-05-10T12:52:03;3.97;;;1.20;;
69534;SDS011;56754;51.568;5.048;2023-05-10T12:54:29;3.80;;;1.50;;
69534;SDS011;56754;51.568;5.048;2023-05-10T12:56:55;3.47;;;1.20;;
69534;SDS011;56754;51.568;5.048;2023-05-10T12:59:21;3.50;;;1.20;;
69534;SDS011;56754;51.568;5.048;2023-05-10T13:01:46;3.40;;;1.30;;
69534;SDS011;56754;51.568;5.048;2023-05-10T13:04:11;3.53;;;1.30;;
69534;SDS011;56754;51.568;5.048;2023-05-10T13:06:37;3.77;;;1.37;;
69534;SDS011;56754;51.568;5.048;2023-05-10T13:09:02;4.53;;;1.40;;
69534;SDS011;56754;51.568;5.048;2023-05-10T13:11:27;3.47;;;1.30;;
69534;SDS011;56754;51.568;5.048;2023-05-10T13:13:54;3.47;;;1.30;;
69534;SDS011;56754;51.568;5.048;2023-05-10T13:16:19;3.67;;;1.40;;
69534;SDS011;56754;51.568;5.048;2023-05-10T13:18:45;3.35;;;1.38;;
69534;SDS011;56754;51.568;5.048;2023-05-10T13:21:14;3.90;;;1.17;;
69534;SDS011;56754;51.568;5.048;2023-05-10T13:23:39;3.13;;;1.00;;
69534;SDS011;56754;51.568;5.048;2023-05-10T13:26:04;3.83;;;1.30;;
69534;SDS011;56754;51.568;5.048;2023-05-10T13:28:29;3.03;;;1.03;;
69534;SDS011;56754;51.568;5.048;2023-05-10T13:30:55;2.63;;;1.00;;
69534;SDS011;56754;51.568;5.048;2023-05-10T13:33:20;4.10;;;1.20;;
69534;SDS011;56754;51.568;5.048;2023-05-10T13:35:45;2.77;;;1.20;;
69534;SDS011;56754;51.568;5.048;2023-05-10T13:38:11;3.97;;;1.30;;
69534;SDS011;56754;51.568;5.048;2023-05-10T13:40:37;3.42;;;1.13;;
69534;SDS011;56754;51.568;5.048;2023-05-10T13:43:02;2.83;;;1.10;;
69534;SDS011;56754;51.568;5.048;2023-05-10T13:45:28;3.63;;;1.37;;
69534;SDS011;56754;51.568;5.048;2023-05-10T13:47:53;3.33;;;1.40;;
69534;SDS011;56754;51.568;5.048;2023-05-10T13:50:18;3.20;;;1.20;;
69534;SDS011;56754;51.568;5.048;2023-05-10T13:52:44;4.80;;;1.30;;
69534;SDS011;56754;51.568;5.048;2023-05-10T13:55:09;3.37;;;1.27;;
69534;SDS011;56754;51.568;5.048;2023-05-10T13:57:35;3.87;;;1.20;;
69534;SDS011;56754;51.568;5.048;2023-05-10T14:00:00;3.08;;;1.10;;
69534;SDS011;56754;51.568;5.048;2023-05-10T14:02:25;5.00;;;1.13;;
69534;SDS011;56754;51.568;5.048;2023-05-10T14:04:50;3.57;;;1.00;;
69534;SDS011;56754;51.568;5.048;2023-05-10T14:07:16;2.70;;;1.13;;
69534;SDS011;56754;51.568;5.048;2023-05-10T14:09:44;2.63;;;0.90;;
69534;SDS011;56754;51.568;5.048;2023-05-10T14:12:10;2.67;;;0.90;;
69534;SDS011;56754;51.568;5.048;2023-05-10T14:14:35;3.33;;;1.00;;
69534;SDS011;56754;51.568;5.048;2023-05-10T14:17:00;3.33;;;0.80;;
69534;SDS011;56754;51.568;5.048;2023-05-10T14:19:25;2.40;;;0.90;;
69534;SDS011;56754;51.568;5.048;2023-05-10T14:21:51;2.72;;;0.80;;
69534;SDS011;56754;51.568;5.048;2023-05-10T14:24:16;2.50;;;0.90;;
69534;SDS011;56754;51.568;5.048;2023-05-10T14:26:44;4.07;;;1.00;;
69534;SDS011;56754;51.568;5.048;2023-05-10T14:29:09;2.97;;;0.98;;
69534;SDS011;56754;51.568;5.048;2023-05-10T14:31:35;3.53;;;1.20;;
69534;SDS011;56754;51.568;5.048;2023-05-10T14:34:01;3.13;;;1.07;;
69534;SDS011;56754;51.568;5.048;2023-05-10T14:36:29;4.07;;;1.30;;
69534;SDS011;56754;51.568;5.048;2023-05-10T14:38:55;4.32;;;1.17;;
69534;SDS011;56754;51.568;5.048;2023-05-10T14:41:20;2.57;;;1.03;;
69534;SDS011;56754;51.568;5.048;2023-05-10T14:43:45;3.43;;;1.00;;
69534;SDS011;56754;51.568;5.048;2023-05-10T14:46:11;3.27;;;0.97;;
69534;SDS011;56754;51.568;5.048;2023-05-10T14:48:36;3.63;;;1.15;;
69534;SDS011;56754;51.568;5.048;2023-05-10T14:51:01;4.57;;;1.50;;
69534;SDS011;56754;51.568;5.048;2023-05-10T14:53:26;4.10;;;1.00;;
69534;SDS011;56754;51.568;5.048;2023-05-10T14:55:52;3.40;;;1.23;;
69534;SDS011;56754;51.568;5.048;2023-05-10T14:58:20;3.67;;;1.20;;
69534;SDS011;56754;51.568;5.048;2023-05-10T15:00:45;2.83;;;1.10;;
69534;SDS011;56754;51.568;5.048;2023-05-10T15:03:10;2.77;;;1.10;;
69534;SDS011;56754;51.568;5.048;2023-05-10T15:05:36;3.13;;;1.20;;
69534;SDS011;56754;51.568;5.048;2023-05-10T15:08:01;2.87;;;1.00;;
69534;SDS011;56754;51.568;5.048;2023-05-10T15:10:26;5.60;;;1.20;;
69534;SDS011;56754;51.568;5.048;2023-05-10T15:12:51;2.97;;;1.00;;
69534;SDS011;56754;51.568;5.048;2023-05-10T15:15:17;3.47;;;1.30;;
69534;SDS011;56754;51.568;5.048;2023-05-10T15:17:43;5.00;;;1.33;;